createdAt,value
2022-07-25T00:03:09.411Z,10.80
2022-07-25T00:08:15.120Z,10.70
2022-07-25T00:13:19.258Z,10.70
2022-07-25T00:18:23.599Z,10.10
2022-07-25T00:23:27.751Z,10.70
2022-07-25T00:28:31.868Z,10.70
2022-07-25T00:33:36.201Z,11.00
2022-07-25T00:38:40.464Z,10.40
2022-07-25T00:43:46.447Z,11.00
2022-07-25T00:48:50.889Z,12.30
2022-07-25T00:53:58.128Z,11.00
2022-07-25T00:59:02.511Z,11.50
2022-07-25T01:04:07.926Z,11.30
2022-07-25T01:09:13.140Z,10.60
2022-07-25T01:14:18.188Z,11.30
2022-07-25T01:19:22.435Z,11.10
2022-07-25T01:24:26.871Z,10.10
2022-07-25T01:29:31.114Z,9.90
2022-07-25T01:34:35.252Z,10.40
2022-07-25T01:39:39.596Z,10.10
2022-07-25T01:44:43.648Z,10.00
2022-07-25T01:49:47.974Z,10.40
2022-07-25T01:54:53.210Z,9.80
2022-07-25T01:59:57.973Z,10.50
2022-07-25T02:05:02.370Z,8.70
2022-07-25T02:10:10.178Z,9.90
2022-07-25T02:15:14.372Z,9.90
2022-07-25T02:20:18.415Z,9.30
2022-07-25T02:25:22.625Z,8.90
2022-07-25T02:30:28.297Z,9.60
2022-07-25T02:35:32.569Z,9.70
2022-07-25T02:40:36.794Z,10.30
2022-07-25T02:45:41.194Z,9.40
2022-07-25T02:50:45.282Z,8.80
2022-07-25T02:55:49.794Z,10.30
2022-07-25T03:00:54.192Z,9.30
2022-07-25T03:05:58.404Z,10.00
2022-07-25T03:11:02.844Z,9.70
2022-07-25T03:16:08.433Z,8.70
2022-07-25T03:21:12.522Z,9.40
2022-07-25T03:26:16.640Z,8.70
2022-07-25T03:31:20.993Z,9.80
2022-07-25T03:36:25.575Z,8.40
2022-07-25T03:41:30.324Z,7.90
2022-07-25T03:46:34.659Z,9.40
2022-07-25T03:51:38.800Z,9.70
2022-07-25T03:56:47.131Z,9.60
2022-07-25T04:01:52.524Z,10.20
2022-07-25T04:06:57.349Z,9.90
2022-07-25T04:12:01.383Z,11.30
2022-07-25T04:17:06.878Z,10.30
2022-07-25T04:22:11.798Z,11.30
2022-07-25T04:27:16.137Z,11.00
2022-07-25T04:32:23.386Z,11.00
2022-07-25T04:37:27.886Z,11.70
2022-07-25T04:42:31.914Z,10.10
2022-07-25T04:47:36.068Z,10.70
2022-07-25T04:52:40.586Z,11.60
2022-07-25T04:57:48.013Z,9.90
2022-07-25T05:02:55.423Z,10.50
2022-07-25T05:08:00.692Z,10.00
2022-07-25T05:13:04.829Z,10.50
2022-07-25T05:18:09.061Z,10.80
2022-07-25T05:23:13.000Z,10.70
2022-07-25T05:28:17.345Z,10.10
2022-07-25T05:33:21.580Z,10.00
2022-07-25T05:38:26.024Z,6.10
2022-07-25T05:43:30.466Z,8.40
2022-07-25T05:48:34.696Z,8.60
2022-07-25T05:53:41.787Z,8.80
2022-07-25T05:58:47.377Z,9.30
2022-07-25T06:03:51.729Z,8.00
2022-07-25T06:08:55.851Z,7.50
2022-07-25T06:14:01.026Z,6.60
2022-07-25T06:19:05.859Z,7.10
2022-07-25T06:24:10.508Z,6.20
2022-07-25T06:29:15.057Z,5.80
2022-07-25T06:34:19.287Z,4.80
2022-07-25T06:39:23.525Z,6.80
2022-07-25T06:44:27.866Z,5.30
2022-07-25T06:49:32.435Z,5.90
2022-07-25T06:54:36.456Z,5.60
2022-07-25T06:59:40.798Z,4.70
2022-07-25T07:04:45.220Z,5.70
2022-07-25T07:09:49.371Z,5.20
2022-07-25T07:14:53.403Z,5.80
2022-07-25T07:20:00.656Z,6.20
2022-07-25T07:25:05.842Z,5.80
2022-07-25T07:30:11.581Z,6.60
2022-07-25T07:35:17.041Z,5.40
2022-07-25T07:40:22.717Z,5.40
2022-07-25T07:45:27.932Z,5.80
2022-07-25T07:50:38.362Z,6.40
2022-07-25T07:55:55.872Z,5.60
2022-07-25T08:01:00.452Z,5.10
2022-07-25T08:06:05.692Z,5.80
2022-07-25T08:11:10.017Z,4.70
2022-07-25T08:16:14.484Z,5.40
2022-07-25T08:21:21.758Z,5.10
2022-07-25T08:26:28.454Z,4.90
2022-07-25T08:31:32.843Z,5.40
2022-07-25T08:36:37.138Z,4.80
2022-07-25T08:41:42.916Z,5.60
2022-07-25T08:46:48.602Z,5.90
2022-07-25T08:51:52.980Z,5.60
2022-07-25T08:57:00.028Z,6.80
2022-07-25T09:02:07.883Z,5.80
2022-07-25T09:07:12.090Z,5.80
2022-07-25T09:12:19.674Z,5.30
2022-07-25T09:17:25.883Z,6.90
2022-07-25T09:22:31.862Z,5.00
2022-07-25T09:27:35.986Z,5.50
2022-07-25T09:32:40.240Z,5.70
2022-07-25T09:37:44.797Z,6.30
2022-07-25T09:42:51.883Z,5.70
2022-07-25T09:48:03.189Z,5.80
2022-07-25T09:53:07.523Z,5.90
2022-07-25T09:58:11.668Z,6.30
2022-07-25T10:03:29.913Z,6.70
2022-07-25T10:08:42.175Z,6.50
2022-07-25T10:13:46.380Z,5.90
2022-07-25T10:18:59.628Z,6.50
2022-07-25T10:24:10.287Z,5.90
2022-07-25T10:29:17.522Z,5.10
2022-07-25T10:34:32.207Z,6.00
2022-07-25T10:39:49.408Z,6.00
2022-07-25T10:50:22.167Z,6.80
2022-07-25T10:55:31.876Z,5.60
2022-07-25T11:00:45.610Z,5.80
2022-07-25T11:05:50.572Z,4.60
2022-07-25T11:10:55.081Z,5.00
2022-07-25T11:16:00.037Z,5.20
2022-07-25T11:21:07.344Z,5.80
2022-07-25T11:26:13.785Z,5.70
2022-07-25T11:31:23.442Z,5.10
2022-07-25T11:36:28.040Z,4.30
2022-07-25T11:41:32.475Z,4.20
2022-07-25T11:46:47.130Z,3.60
2022-07-25T11:51:53.436Z,5.60
2022-07-25T11:56:58.803Z,5.40
2022-07-25T12:02:03.322Z,4.80
2022-07-25T12:07:08.385Z,4.30
2022-07-25T12:12:12.843Z,3.80
2022-07-25T12:17:23.148Z,6.00
2022-07-25T12:22:34.101Z,4.00
2022-07-25T12:32:44.550Z,4.10
2022-07-25T12:37:49.091Z,3.80
2022-07-25T12:42:53.848Z,4.60
2022-07-25T12:47:58.385Z,4.00
2022-07-25T12:53:03.020Z,4.60
2022-07-25T12:58:08.493Z,4.50
2022-07-25T13:03:15.208Z,4.20
2022-07-25T13:13:25.725Z,4.20
2022-07-25T13:18:31.099Z,5.00
2022-07-25T13:23:35.620Z,4.90
2022-07-25T13:28:39.865Z,4.00
2022-07-25T13:33:44.514Z,4.10
2022-07-25T13:38:49.037Z,3.80
2022-07-25T13:43:53.694Z,3.70
2022-07-25T13:48:58.487Z,3.70
2022-07-25T13:54:05.619Z,4.50
2022-07-25T13:59:11.630Z,3.80
2022-07-25T14:04:18.184Z,3.50
2022-07-25T14:09:24.478Z,4.80
2022-07-25T14:14:28.550Z,3.80
2022-07-25T14:19:34.578Z,4.00
2022-07-25T14:24:39.579Z,3.80
2022-07-25T14:29:44.002Z,3.30
2022-07-25T14:34:49.180Z,4.00
2022-07-25T14:39:54.665Z,4.00
2022-07-25T14:44:59.835Z,4.20
2022-07-25T14:50:04.898Z,3.70
2022-07-25T14:55:10.695Z,3.80
2022-07-25T15:00:16.039Z,3.40
2022-07-25T15:05:20.498Z,4.00
2022-07-25T15:10:29.096Z,3.90
2022-07-25T15:15:36.855Z,3.80
2022-07-25T15:20:44.258Z,4.60
2022-07-25T15:26:05.018Z,3.90
2022-07-25T15:31:10.043Z,3.00
2022-07-25T15:36:14.657Z,3.70
2022-07-25T15:41:18.820Z,3.80
2022-07-25T15:46:23.171Z,3.60
2022-07-25T15:51:27.690Z,3.20
2022-07-25T15:56:32.767Z,3.50
2022-07-25T16:01:38.056Z,2.80
2022-07-25T16:06:42.879Z,4.50
2022-07-25T16:11:47.311Z,3.70
2022-07-25T16:16:51.746Z,4.10
2022-07-25T16:21:59.561Z,4.00
2022-07-25T16:27:06.461Z,3.70
2022-07-25T16:37:15.974Z,4.40
2022-07-25T16:42:20.204Z,4.20
2022-07-25T16:47:26.820Z,5.00
2022-07-25T16:52:31.746Z,4.70
2022-07-25T16:57:38.405Z,5.00
2022-07-25T17:02:44.485Z,5.70
2022-07-25T17:07:49.493Z,5.30
2022-07-25T17:12:54.489Z,4.20
2022-07-25T17:18:01.556Z,5.80
2022-07-25T17:23:06.402Z,6.00
2022-07-25T17:28:10.630Z,4.90
2022-07-25T17:33:15.397Z,4.50
2022-07-25T17:38:25.446Z,5.40
2022-07-25T17:43:31.137Z,4.60
2022-07-25T17:48:36.050Z,5.20
2022-07-25T17:53:40.665Z,5.10
2022-07-25T17:58:45.704Z,4.50
2022-07-25T18:03:53.073Z,5.30
2022-07-25T18:08:57.450Z,5.00
2022-07-25T18:14:01.686Z,5.20
2022-07-25T18:19:06.577Z,4.10
2022-07-25T18:24:10.937Z,5.50
2022-07-25T18:29:15.675Z,4.80
2022-07-25T18:34:20.182Z,5.20
2022-07-25T18:39:24.648Z,5.10
2022-07-25T18:44:29.615Z,5.20
2022-07-25T18:49:34.850Z,7.20
2022-07-25T18:54:39.798Z,6.40
2022-07-25T18:59:44.227Z,5.70
2022-07-25T19:04:48.367Z,5.90
2022-07-25T19:09:53.121Z,6.50
2022-07-25T19:14:57.658Z,5.90
2022-07-25T19:20:03.349Z,5.60
2022-07-25T19:25:12.811Z,5.50
2022-07-25T19:30:22.044Z,5.70
2022-07-25T19:40:57.152Z,6.80
2022-07-25T19:46:02.021Z,7.00
2022-07-25T19:51:06.531Z,6.50
2022-07-25T19:56:11.624Z,6.40
2022-07-25T20:01:17.156Z,6.00
2022-07-25T20:06:21.645Z,6.40
2022-07-25T20:11:25.907Z,5.40
2022-07-25T20:16:31.279Z,6.30
2022-07-25T20:21:39.935Z,6.10
2022-07-25T20:26:44.095Z,6.30
2022-07-25T20:31:48.419Z,7.30
2022-07-25T20:36:52.767Z,6.20
2022-07-25T20:41:57.356Z,6.60
2022-07-25T20:47:01.550Z,6.50
2022-07-25T20:52:09.125Z,6.50
2022-07-25T20:57:14.685Z,5.90
2022-07-25T21:02:19.379Z,6.70
2022-07-25T21:07:23.633Z,6.80
2022-07-25T21:12:32.451Z,6.20
2022-07-25T21:17:37.141Z,6.80
2022-07-25T21:22:43.320Z,7.00
2022-07-25T21:27:49.251Z,6.80
2022-07-25T21:32:54.684Z,6.90
2022-07-25T21:37:59.272Z,6.70
2022-07-25T21:43:03.769Z,7.20
2022-07-25T21:48:08.342Z,6.30
2022-07-25T21:53:15.280Z,7.30
2022-07-25T21:58:22.108Z,7.50
2022-07-25T22:03:27.142Z,6.70
2022-07-25T22:08:31.469Z,6.90
2022-07-25T22:13:37.215Z,7.10
2022-07-25T22:18:44.551Z,7.20
2022-07-25T22:23:48.788Z,6.70
2022-07-25T22:28:53.134Z,6.80
2022-07-25T22:33:57.168Z,7.30
2022-07-25T22:39:02.172Z,7.50
2022-07-25T22:44:06.661Z,7.80
2022-07-25T22:49:11.522Z,7.50
2022-07-25T22:54:16.275Z,7.00
2022-07-25T22:59:20.716Z,7.00
2022-07-25T23:04:25.102Z,7.80
2022-07-25T23:09:36.392Z,7.00
2022-07-25T23:14:41.057Z,7.90
2022-07-25T23:19:47.126Z,5.60
2022-07-25T23:24:52.177Z,7.90
2022-07-25T23:29:56.994Z,7.80
2022-07-25T23:35:01.430Z,7.90
2022-07-25T23:40:07.610Z,8.40
2022-07-25T23:45:12.558Z,7.60
2022-07-25T23:50:17.001Z,8.20
2022-07-25T23:55:21.249Z,6.90
